Time;durP1;ratioP1;P1;durP2;ratioP2;P2;SDS_P1;SDS_P2;PMS_P1;PMS_P2;Temp;Humidity;BMP_temperature;BMP_pressure;BME280_temperature;BME280_humidity;BME280_pressure;Samples;Min_cycle;Max_cycle;Signal;HPM_P1;HPM_P2
2022/08/22 00:01:54;;;;;;;9.82;3.80;;;15.20;93.60;;;;;;5025005;28;20447;-65
2022/08/22 00:04:47;;;;;;;6.72;3.78;;;15.20;93.50;;;;;;5028975;28;20041;-67
2022/08/22 00:07:31;;;;;;;8.88;3.55;;;15.20;93.60;;;;;;5035286;28;20072;-66
2022/08/22 00:09:56;;;;;;;9.13;3.63;;;15.10;94.20;;;;;;5018669;28;20034;-67
2022/08/22 00:12:47;;;;;;;7.25;3.50;;;15.00;94.50;;;;;;5021130;28;20025;-66
2022/08/22 00:15:26;;;;;;;9.13;3.78;;;15.00;94.80;;;;;;5033100;28;20370;-65
2022/08/22 00:18:09;;;;;;;10.32;3.42;;;15.00;95.20;;;;;;5021654;28;20335;-66
2022/08/22 00:21:31;;;;;;;9.30;3.65;;;15.00;95.30;;;;;;5026300;28;20065;-65
2022/08/22 00:24:21;;;;;;;9.05;4.00;;;14.90;95.80;;;;;;4962676;28;20520;-66
2022/08/22 00:27:04;;;;;;;8.63;3.80;;;14.90;96.00;;;;;;4997447;28;20110;-66
2022/08/22 00:29:40;;;;;;;7.43;3.63;;;14.80;96.50;;;;;;5011114;28;20060;-66
2022/08/22 00:32:19;;;;;;;7.47;3.67;;;14.70;96.30;;;;;;5024514;28;20029;-66
2022/08/22 00:35:14;;;;;;;7.80;3.88;;;14.60;96.40;;;;;;5029867;28;20045;-66
2022/08/22 00:38:16;;;;;;;8.65;4.03;;;14.50;97.00;;;;;;5018810;28;20419;-66
2022/08/22 00:41:00;;;;;;;9.93;4.40;;;14.40;97.40;;;;;;5024209;28;20036;-66
2022/08/22 00:44:01;;;;;;;7.30;3.70;;;14.30;97.60;;;;;;5036972;28;20422;-66
2022/08/22 00:46:41;;;;;;;7.97;4.35;;;14.30;97.60;;;;;;4993375;28;20052;-66
2022/08/22 00:49:36;;;;;;;6.43;3.90;;;14.40;97.40;;;;;;5038520;28;20025;-66
2022/08/22 00:52:21;;;;;;;7.75;3.97;;;14.30;97.50;;;;;;5036959;28;20389;-64
2022/08/22 00:55:24;;;;;;;8.70;4.13;;;14.30;97.70;;;;;;5036986;28;20029;-64
2022/08/22 00:58:02;;;;;;;6.30;3.90;;;14.30;97.80;;;;;;5035839;28;20124;-65
2022/08/22 01:00:30;;;;;;;7.95;3.88;;;14.20;97.90;;;;;;5031042;28;20029;-64
2022/08/22 01:03:45;;;;;;;7.72;4.25;;;14.30;98.00;;;;;;5028335;28;20320;-65
2022/08/22 01:06:32;;;;;;;9.07;3.93;;;14.40;98.00;;;;;;4949967;28;20070;-67
2022/08/22 01:09:07;;;;;;;9.52;4.53;;;14.40;97.80;;;;;;4980903;28;20492;-66
2022/08/22 01:11:48;;;;;;;9.95;4.20;;;14.50;97.80;;;;;;5033620;28;20044;-66
2022/08/22 01:14:24;;;;;;;9.65;4.68;;;14.50;97.90;;;;;;5035591;28;20318;-65
2022/08/22 01:17:02;;;;;;;9.23;4.60;;;14.50;97.90;;;;;;5037152;28;20033;-66
2022/08/22 01:19:52;;;;;;;10.45;4.70;;;14.50;97.90;;;;;;5037459;28;20022;-66
2022/08/22 01:22:29;;;;;;;7.45;4.80;;;14.50;97.90;;;;;;5037617;28;20034;-66
2022/08/22 01:25:41;;;;;;;10.25;4.32;;;14.50;97.90;;;;;;5027056;28;20406;-66
2022/08/22 01:28:34;;;;;;;10.13;3.90;;;14.60;97.90;;;;;;5035503;28;20057;-66
2022/08/22 01:31:15;;;;;;;8.38;3.97;;;14.60;97.60;;;;;;5037403;28;20060;-66
2022/08/22 01:34:02;;;;;;;8.57;3.42;;;14.60;97.70;;;;;;5037311;28;20061;-65
2022/08/22 01:37:03;;;;;;;8.90;3.97;;;14.50;97.80;;;;;;5035705;28;20033;-66
2022/08/22 01:39:58;;;;;;;9.18;4.38;;;14.30;98.00;;;;;;5024528;28;20018;-66
2022/08/22 01:42:47;;;;;;;7.97;4.22;;;14.20;98.00;;;;;;5032758;28;20414;-66
2022/08/22 01:45:30;;;;;;;7.70;4.32;;;14.00;98.00;;;;;;5032199;28;20112;-66
2022/08/22 01:48:15;;;;;;;8.90;3.88;;;14.00;98.00;;;;;;5019104;28;20415;-67
2022/08/22 01:51:00;;;;;;;7.10;3.97;;;14.00;98.00;;;;;;5018413;28;20331;-66
2022/08/22 01:53:41;;;;;;;7.40;4.20;;;14.00;98.00;;;;;;5022352;28;20037;-66
2022/08/22 01:56:10;;;;;;;9.68;4.13;;;14.20;98.00;;;;;;5030405;28;20067;-66
2022/08/22 01:58:42;;;;;;;11.35;4.45;;;14.20;98.00;;;;;;5031554;28;20130;-66
2022/08/22 02:01:16;;;;;;;11.82;4.65;;;14.20;98.00;;;;;;5023377;28;20032;-66
2022/08/22 02:04:04;;;;;;;7.68;3.95;;;14.20;98.00;;;;;;5036997;28;20407;-66
2022/08/22 02:06:48;;;;;;;10.88;4.60;;;14.20;98.00;;;;;;5030329;28;20408;-65
2022/08/22 02:09:21;;;;;;;9.38;4.18;;;14.10;98.00;;;;;;5022374;28;20331;-66
2022/08/22 02:11:54;;;;;;;10.68;4.60;;;14.10;98.00;;;;;;5025260;28;20061;-66
2022/08/22 02:14:39;;;;;;;7.85;4.47;;;14.20;98.00;;;;;;5025008;28;20045;-66
2022/08/22 02:17:07;;;;;;;7.97;4.20;;;14.20;98.00;;;;;;5023148;28;20029;-66
2022/08/22 02:20:22;;;;;;;7.78;4.20;;;14.20;98.00;;;;;;5042194;28;20068;-65
2022/08/22 02:22:59;;;;;;;8.15;4.10;;;14.20;98.00;;;;;;5008770;28;20048;-64
2022/08/22 02:25:46;;;;;;;10.93;4.53;;;14.30;98.00;;;;;;5016620;28;20026;-65
2022/08/22 02:28:20;;;;;;;9.07;4.28;;;14.30;98.00;;;;;;5032119;28;20149;-65
2022/08/22 02:30:46;;;;;;;;;;;14.30;98.00;;;;;;5026014;28;20335;-67
2022/08/22 02:33:45;;;;;;;16.38;4.68;;;14.30;98.00;;;;;;5019880;28;19917;-64
2022/08/22 02:36:29;;;;;;;6.60;4.00;;;14.30;98.00;;;;;;5020204;28;20026;-66
2022/08/22 02:39:07;;;;;;;9.17;4.30;;;14.30;98.00;;;;;;5017054;28;20031;-66
2022/08/22 02:42:13;;;;;;;7.32;3.92;;;14.30;98.00;;;;;;5020454;28;20022;-66
2022/08/22 02:44:46;;;;;;;11.63;4.47;;;14.30;98.00;;;;;;5017014;28;20026;-65
2022/08/22 02:47:33;;;;;;;10.17;4.33;;;14.30;98.00;;;;;;5025822;28;20101;-66
2022/08/22 02:50:30;;;;;;;8.18;3.80;;;14.30;98.00;;;;;;5019991;28;20323;-65
2022/08/22 02:53:04;;;;;;;9.95;4.25;;;14.30;98.00;;;;;;5022404;28;20033;-66
2022/08/22 02:56:11;;;;;;;7.50;4.20;;;14.30;98.00;;;;;;5035892;28;20025;-66
2022/08/22 02:58:53;;;;;;;7.07;4.07;;;14.30;98.00;;;;;;5009090;28;20529;-66
2022/08/22 03:01:28;;;;;;;9.15;4.38;;;14.30;98.00;;;;;;5016064;28;20021;-65
2022/08/22 03:04:20;;;;;;;11.30;4.82;;;14.30;98.00;;;;;;5035291;28;20030;-66
2022/08/22 03:07:04;;;;;;;7.60;4.28;;;14.20;98.00;;;;;;5028987;28;20021;-66
2022/08/22 03:09:39;;;;;;;8.27;4.07;;;14.20;98.00;;;;;;5026573;28;20072;-66
2022/08/22 03:12:27;;;;;;;8.40;4.28;;;14.20;98.00;;;;;;5023806;28;20438;-65
2022/08/22 03:15:02;;;;;;;9.00;4.13;;;14.20;98.00;;;;;;5017713;28;20305;-65
2022/08/22 03:17:30;;;;;;;7.78;4.03;;;14.10;98.00;;;;;;5029611;28;20025;-66
2022/08/22 03:20:11;;;;;;;8.70;4.30;;;14.10;98.00;;;;;;5022843;28;20045;-65
2022/08/22 03:22:43;;;;;;;7.95;4.28;;;14.00;98.00;;;;;;5017370;28;20101;-65
2022/08/22 03:25:08;;;;;;;9.27;4.47;;;14.00;98.00;;;;;;5015582;28;20503;-65
2022/08/22 03:27:50;;;;;;;8.50;4.05;;;14.00;98.00;;;;;;5025673;28;20021;-65
2022/08/22 03:30:35;;;;;;;8.00;4.13;;;14.00;98.00;;;;;;5025951;28;20435;-66
2022/08/22 03:33:21;;;;;;;8.68;4.47;;;14.00;98.00;;;;;;5032023;28;20029;-65
2022/08/22 03:35:47;;;;;;;9.10;4.32;;;14.00;98.00;;;;;;5024598;28;20091;-66
2022/08/22 03:38:24;;;;;;;8.30;4.25;;;14.10;98.00;;;;;;5029548;28;20036;-66
2022/08/22 03:41:21;;;;;;;9.60;4.25;;;14.00;98.00;;;;;;5028325;28;20025;-65
2022/08/22 03:44:06;;;;;;;8.75;4.20;;;13.90;98.00;;;;;;5024518;28;20056;-65
2022/08/22 03:46:37;;;;;;;8.50;4.57;;;13.80;98.00;;;;;;5023629;28;20033;-65
2022/08/22 03:49:22;;;;;;;9.27;4.82;;;13.70;98.00;;;;;;5034335;28;20128;-64
2022/08/22 03:52:21;;;;;;;9.63;5.15;;;13.50;98.00;;;;;;5022960;28;20434;-64
2022/08/22 03:55:25;;;;;;;7.85;4.63;;;13.20;98.00;;;;;;5029967;28;20033;-64
2022/08/22 03:58:13;;;;;;;10.20;5.13;;;13.00;97.70;;;;;;5037139;28;20053;-66
2022/08/22 04:01:06;;;;;;;9.45;5.07;;;12.90;97.00;;;;;;5025382;28;20029;-67
2022/08/22 04:03:55;;;;;;;12.30;5.82;;;12.80;96.10;;;;;;5020402;28;20018;-67
2022/08/22 04:06:50;;;;;;;7.05;4.63;;;12.70;95.70;;;;;;5020292;28;20030;-67
2022/08/22 04:09:41;;;;;;;9.73;4.75;;;12.60;96.10;;;;;;5023905;28;20564;-67
2022/08/22 04:12:48;;;;;;;8.98;5.25;;;12.40;95.30;;;;;;5021608;28;20034;-67
2022/08/22 04:15:32;;;;;;;7.82;5.18;;;12.30;94.90;;;;;;5023412;28;20033;-65
2022/08/22 04:18:06;;;;;;;12.82;4.80;;;12.20;94.50;;;;;;5036765;28;20047;-66
2022/08/22 04:20:55;;;;;;;8.57;5.03;;;12.20;93.90;;;;;;5037107;28;20045;-66
2022/08/22 04:23:23;;;;;;;11.52;5.20;;;12.30;94.10;;;;;;5017663;28;20025;-66
2022/08/22 04:26:00;;;;;;;10.93;5.30;;;12.40;94.50;;;;;;5032231;28;20096;-65
2022/08/22 04:28:44;;;;;;;7.80;4.38;;;12.60;95.20;;;;;;5036323;28;20033;-66
2022/08/22 04:31:21;;;;;;;11.25;4.72;;;12.70;96.50;;;;;;5023001;28;20033;-65
2022/08/22 04:33:58;;;;;;;8.40;4.60;;;12.80;97.30;;;;;;5023010;28;20048;-66
2022/08/22 04:37:03;;;;;;;9.57;4.95;;;13.00;98.00;;;;;;5017847;28;20046;-66
2022/08/22 04:39:50;;;;;;;8.02;4.10;;;13.10;98.00;;;;;;5018040;28;20113;-65
2022/08/22 04:42:30;;;;;;;10.35;4.32;;;13.40;98.00;;;;;;5020053;28;20117;-66
2022/08/22 04:45:06;;;;;;;6.00;4.00;;;13.60;98.00;;;;;;5034941;28;20391;-66
2022/08/22 04:47:40;;;;;;;6.78;4.10;;;13.80;98.00;;;;;;5018722;28;20034;-66
2022/08/22 04:50:30;;;;;;;7.32;4.03;;;13.80;98.00;;;;;;5023609;28;20088;-65
2022/08/22 04:53:22;;;;;;;9.35;4.50;;;13.80;98.00;;;;;;5017940;28;20116;-66
2022/08/22 04:55:50;;;;;;;7.07;3.90;;;13.80;98.00;;;;;;5023408;28;20108;-68
2022/08/22 04:58:16;;;;;;;6.93;4.20;;;13.70;98.00;;;;;;5021388;28;20076;-65
2022/08/22 05:00:53;;;;;;;6.85;3.80;;;13.50;98.00;;;;;;5021044;28;20030;-66
2022/08/22 05:03:22;;;;;;;6.40;3.60;;;13.40;98.00;;;;;;5034453;28;20060;-65
2022/08/22 05:05:49;;;;;;;6.53;3.85;;;13.40;98.00;;;;;;5024454;28;20415;-64
2022/08/22 05:08:31;;;;;;;6.25;4.07;;;13.20;98.00;;;;;;5030042;28;20067;-65
2022/08/22 05:10:58;;;;;;;8.30;4.30;;;13.10;98.00;;;;;;5021304;28;20048;-66
2022/08/22 05:13:33;;;;;;;10.70;4.30;;;13.00;98.00;;;;;;5024875;28;20025;-66
2022/08/22 05:16:03;;;;;;;8.80;4.45;;;12.90;98.00;;;;;;5027871;28;20463;-66
2022/08/22 05:18:34;;;;;;;9.45;4.78;;;12.80;97.40;;;;;;5029647;28;20431;-65
2022/08/22 05:21:03;;;;;;;8.77;5.07;;;12.90;97.30;;;;;;5029900;28;20463;-65
2022/08/22 05:24:08;;;;;;;7.95;4.55;;;12.90;97.50;;;;;;5022263;28;20018;-65
2022/08/22 05:26:40;;;;;;;7.27;4.07;;;13.10;97.70;;;;;;5031275;28;20128;-65
2022/08/22 05:29:10;;;;;;;8.75;4.88;;;13.20;97.80;;;;;;5023545;28;20318;-65
2022/08/22 05:31:44;;;;;;;7.43;4.45;;;13.40;98.00;;;;;;5027868;28;20026;-65
2022/08/22 05:34:14;;;;;;;9.30;4.88;;;13.50;98.00;;;;;;5029285;28;20442;-66
2022/08/22 05:36:45;;;;;;;11.55;4.50;;;13.70;98.00;;;;;;5031759;28;20076;-66
2022/08/22 05:39:16;;;;;;;8.25;4.63;;;13.80;98.00;;;;;;5035937;28;20414;-66
2022/08/22 05:41:43;;;;;;;10.55;4.57;;;13.90;98.00;;;;;;5022053;28;20084;-65
2022/08/22 05:44:20;;;;;;;6.53;3.97;;;14.10;98.00;;;;;;5027378;28;20025;-65
2022/08/22 05:46:50;;;;;;;7.07;3.80;;;14.20;98.00;;;;;;5034774;28;20037;-66
2022/08/22 05:49:20;;;;;;;9.30;4.55;;;14.40;98.00;;;;;;5025356;28;20029;-65
2022/08/22 05:52:01;;;;;;;6.55;3.75;;;14.40;98.00;;;;;;5016993;28;20300;-66
2022/08/22 05:54:33;;;;;;;7.85;3.85;;;14.60;98.00;;;;;;5022345;28;20091;-66
2022/08/22 05:57:16;;;;;;;11.52;4.70;;;14.70;98.00;;;;;;5032749;28;20431;-65
2022/08/22 05:59:45;;;;;;;8.38;3.70;;;14.90;98.00;;;;;;5017199;28;20045;-66
2022/08/22 06:02:19;;;;;;;8.70;3.72;;;15.00;98.00;;;;;;5018215;28;20029;-65
2022/08/22 06:04:57;;;;;;;;;;;15.10;98.00;;;;;;5034640;28;20034;-65
2022/08/22 06:07:33;;;;;;;10.13;4.32;;;15.20;98.00;;;;;;5020130;28;20303;-66
2022/08/22 06:10:16;;;;;;;6.63;3.60;;;15.40;97.90;;;;;;5023000;28;20025;-66
2022/08/22 06:12:55;;;;;;;7.35;3.65;;;15.60;97.60;;;;;;5028660;28;20130;-66
2022/08/22 06:15:28;;;;;;;7.20;3.80;;;15.80;97.40;;;;;;5030683;28;20037;-66
2022/08/22 06:18:01;;;;;;;8.23;3.73;;;16.10;97.30;;;;;;5036859;28;20030;-66
2022/08/22 06:20:42;;;;;;;7.07;3.60;;;16.20;96.40;;;;;;5022249;28;20287;-65
2022/08/22 06:23:10;;;;;;;8.52;3.70;;;16.30;95.80;;;;;;5024661;28;20014;-66
2022/08/22 06:25:40;;;;;;;5.72;3.60;;;16.40;96.00;;;;;;5016940;28;20025;-66
2022/08/22 06:28:10;;;;;;;11.35;4.45;;;16.50;95.20;;;;;;5023148;28;20021;-66
2022/08/22 06:30:38;;;;;;;7.60;3.55;;;16.70;94.90;;;;;;5021115;28;20034;-66
2022/08/22 06:33:16;;;;;;;6.90;3.53;;;16.80;93.60;;;;;;5016975;28;20030;-66
2022/08/22 06:38:50;;;;;;;6.35;3.38;;;17.00;92.30;;;;;;5015146;28;20053;-66
2022/08/22 06:41:16;;;;;;;7.65;3.45;;;17.30;90.70;;;;;;5035527;28;20059;-65
2022/08/22 06:43:43;;;;;;;6.78;3.50;;;17.40;90.40;;;;;;5035675;28;20415;-65
2022/08/22 06:46:13;;;;;;;9.23;3.58;;;17.60;91.00;;;;;;5036290;28;20423;-65
2022/08/22 06:48:40;;;;;;;8.07;3.75;;;17.70;90.70;;;;;;5036317;28;20089;-65
2022/08/22 06:51:07;;;;;;;6.38;3.50;;;17.80;90.20;;;;;;5033036;28;20369;-65
2022/08/22 06:53:41;;;;;;;6.50;3.55;;;17.80;90.10;;;;;;5034537;28;20036;-67
2022/08/22 06:56:08;;;;;;;7.30;3.47;;;18.00;90.00;;;;;;5036146;28;20427;-67
2022/08/22 06:58:41;;;;;;;10.40;3.97;;;18.10;89.10;;;;;;5036078;28;20403;-67
2022/08/22 07:01:18;;;;;;;6.75;3.30;;;18.20;88.20;;;;;;5030793;28;20049;-66
2022/08/22 07:03:48;;;;;;;7.00;3.22;;;18.30;87.80;;;;;;5015951;28;20030;-66
2022/08/22 07:06:33;;;;;;;8.45;4.78;;;18.50;87.80;;;;;;5016840;28;20014;-66
2022/08/22 07:08:59;;;;;;;17.17;9.20;;;18.70;87.10;;;;;;5021536;28;20427;-66
2022/08/22 07:11:31;;;;;;;19.40;15.10;;;18.80;87.10;;;;;;5051948;28;20056;-64
2022/08/22 07:14:04;;;;;;;8.63;4.75;;;18.90;86.50;;;;;;5050352;28;20372;-64
2022/08/22 07:16:32;;;;;;;8.10;4.23;;;18.90;87.40;;;;;;5035784;28;20026;-64
2022/08/22 07:18:59;;;;;;;6.15;3.67;;;18.90;87.40;;;;;;5033298;28;20014;-64
2022/08/22 07:21:40;;;;;;;9.75;3.95;;;19.00;88.00;;;;;;5016984;28;20042;-66
2022/08/22 07:24:28;;;;;;;7.22;3.47;;;18.90;87.90;;;;;;5014633;28;20113;-66
2022/08/22 07:27:21;;;;;;;7.13;3.83;;;18.90;88.30;;;;;;5015962;28;20026;-66
2022/08/22 07:30:13;;;;;;;8.68;3.42;;;19.10;87.70;;;;;;5015690;28;20033;-67
2022/08/22 07:32:54;;;;;;;8.10;3.95;;;19.10;88.10;;;;;;5015711;28;20026;-66
2022/08/22 07:35:48;;;;;;;7.45;3.42;;;19.20;86.70;;;;;;5019064;28;20030;-66
2022/08/22 07:38:46;;;;;;;7.90;4.32;;;19.40;87.10;;;;;;5028738;28;20107;-66
2022/08/22 07:41:23;;;;;;;9.88;3.75;;;19.50;87.10;;;;;;5016479;28;20096;-66
2022/08/22 07:43:56;;;;;;;8.15;3.88;;;19.70;87.00;;;;;;5015739;28;20026;-66
2022/08/22 07:46:27;;;;;;;7.50;3.33;;;19.80;86.40;;;;;;5016068;28;20026;-66
2022/08/22 07:49:21;;;;;;;11.93;4.88;;;20.00;86.20;;;;;;5016028;28;20064;-66
2022/08/22 07:52:01;;;;;;;6.43;3.35;;;20.00;85.20;;;;;;5024751;28;20049;-66
2022/08/22 07:54:50;;;;;;;9.00;3.28;;;20.10;85.90;;;;;;5014693;28;20498;-66
2022/08/22 07:57:21;;;;;;;7.97;3.58;;;20.50;84.90;;;;;;5015834;28;20088;-66
2022/08/22 07:59:51;;;;;;;7.30;3.17;;;21.40;83.00;;;;;;5018758;28;20022;-66
2022/08/22 08:02:18;;;;;;;8.10;3.40;;;22.50;79.40;;;;;;5017924;28;20045;-66
2022/08/22 08:04:48;;;;;;;7.30;3.42;;;23.10;77.80;;;;;;5015722;28;20415;-67
2022/08/22 08:07:15;;;;;;;6.75;3.17;;;23.80;75.30;;;;;;5015956;28;20388;-66
2022/08/22 08:09:55;;;;;;;8.25;2.70;;;24.80;73.20;;;;;;5021132;28;20038;-66
2022/08/22 08:12:34;;;;;;;7.32;3.58;;;25.30;71.60;;;;;;5035465;28;20319;-66
2022/08/22 08:15:05;;;;;;;8.23;3.20;;;25.40;71.30;;;;;;5036557;28;20025;-66
2022/08/22 08:17:34;;;;;;;5.88;2.80;;;26.20;70.00;;;;;;5023353;28;20547;-66
2022/08/22 08:20:05;;;;;;;7.93;3.10;;;26.90;68.00;;;;;;5026263;28;20038;-66
2022/08/22 08:22:32;;;;;;;6.80;3.03;;;26.60;67.80;;;;;;5020420;28;20358;-67
2022/08/22 08:24:59;;;;;;;6.75;3.00;;;26.60;68.10;;;;;;5018080;28;20384;-66
2022/08/22 08:30:20;;;;;;;5.75;2.97;;;27.10;67.20;;;;;;5019361;28;20450;-66
2022/08/22 08:32:52;;;;;;;5.90;3.00;;;27.30;66.90;;;;;;5019034;28;20064;-66
2022/08/22 08:35:28;;;;;;;5.88;2.55;;;27.90;66.30;;;;;;5018937;28;20034;-67
2022/08/22 08:37:59;;;;;;;7.13;2.65;;;28.40;65.10;;;;;;5019698;28;20026;-66
2022/08/22 08:40:31;;;;;;;6.53;2.63;;;29.30;62.60;;;;;;5018807;28;20294;-65
2022/08/22 08:43:28;;;;;;;7.00;2.55;;;29.40;62.70;;;;;;5033954;28;20025;-65
2022/08/22 08:46:05;;;;;;;5.70;2.60;;;29.10;63.10;;;;;;5036279;28;20025;-65
2022/08/22 08:49:09;;;;;;;6.25;2.83;;;28.80;63.80;;;;;;5019392;28;20070;-65
2022/08/22 08:51:46;;;;;;;6.90;2.60;;;28.40;65.10;;;;;;5019192;28;20030;-65
2022/08/22 08:54:42;;;;;;;8.18;2.60;;;28.40;65.40;;;;;;5017340;28;20105;-66
2022/08/22 08:57:19;;;;;;;7.80;3.08;;;29.30;62.90;;;;;;5021155;28;20483;-65
2022/08/22 09:00:21;;;;;;;6.78;3.08;;;28.80;63.30;;;;;;5038289;28;20407;-65
2022/08/22 09:03:05;;;;;;;6.03;2.83;;;28.20;64.30;;;;;;5038237;28;20028;-65
2022/08/22 09:05:39;;;;;;;8.10;3.10;;;28.20;65.60;;;;;;5026095;28;20621;-66
2022/08/22 09:08:49;;;;;;;5.32;2.60;;;28.80;64.40;;;;;;5034029;28;20053;-65
2022/08/22 09:11:43;;;;;;;8.50;2.70;;;29.30;63.20;;;;;;4985145;28;20041;-66
2022/08/22 09:14:26;;;;;;;7.93;2.50;;;29.00;62.70;;;;;;5025561;28;20029;-65
2022/08/22 09:17:03;;;;;;;7.55;2.75;;;29.70;62.50;;;;;;5036161;28;20086;-66
2022/08/22 09:19:44;;;;;;;5.80;2.75;;;29.40;61.50;;;;;;5034810;28;20423;-65
2022/08/22 09:22:37;;;;;;;6.50;3.28;;;27.60;64.10;;;;;;5019178;28;20026;-65
2022/08/22 09:25:32;;;;;;;9.38;3.20;;;25.70;67.90;;;;;;5032493;28;20327;-65
2022/08/22 09:28:08;;;;;;;4.97;2.80;;;24.70;70.30;;;;;;5037142;28;20022;-65
2022/08/22 09:31:05;;;;;;;6.43;3.22;;;25.40;70.50;;;;;;5031636;28;20390;-66
2022/08/22 09:33:51;;;;;;;6.38;2.67;;;27.50;65.90;;;;;;4995411;28;20046;-66
2022/08/22 09:36:29;;;;;;;7.22;3.10;;;29.30;62.30;;;;;;5037316;28;20021;-64
2022/08/22 09:39:04;;;;;;;5.85;2.50;;;29.90;59.40;;;;;;5018838;28;20355;-65
2022/08/22 09:41:45;;;;;;;6.65;2.85;;;30.10;59.20;;;;;;5018635;28;20022;-65
2022/08/22 09:44:35;;;;;;;7.13;2.67;;;29.90;56.70;;;;;;5019936;28;20033;-66
2022/08/22 09:47:12;;;;;;;6.63;3.13;;;28.60;58.30;;;;;;5033798;28;20343;-64
2022/08/22 09:49:46;;;;;;;5.65;2.85;;;28.30;59.00;;;;;;5017742;28;20026;-66
2022/08/22 09:52:44;;;;;;;7.03;2.92;;;29.00;60.70;;;;;;5016935;28;20057;-65
2022/08/22 09:55:34;;;;;;;7.18;2.63;;;30.00;58.20;;;;;;5013254;28;20056;-65
2022/08/22 09:58:14;;;;;;;5.95;2.72;;;29.90;57.60;;;;;;5025813;28;20021;-66
2022/08/22 10:00:54;;;;;;;7.78;2.85;;;29.80;56.40;;;;;;5017346;28;20032;-66
2022/08/22 10:03:42;;;;;;;7.30;2.75;;;30.10;55.70;;;;;;5032817;28;20026;-65
2022/08/22 10:06:25;;;;;;;7.05;2.88;;;29.90;56.10;;;;;;5037083;28;20017;-65
2022/08/22 10:09:09;;;;;;;5.78;2.58;;;29.50;55.90;;;;;;5031123;28;20030;-66
2022/08/22 10:11:44;;;;;;;7.50;2.90;;;30.00;55.80;;;;;;5035520;28;20037;-65
2022/08/22 10:14:19;;;;;;;7.97;3.22;;;29.80;55.40;;;;;;5017094;28;20330;-65
2022/08/22 10:17:29;;;;;;;6.32;2.60;;;30.00;54.40;;;;;;5017288;28;20033;-65
2022/08/22 10:20:05;;;;;;;8.45;3.80;;;31.00;52.80;;;;;;4976033;28;20047;-65
2022/08/22 10:22:53;;;;;;;6.75;3.30;;;30.80;52.60;;;;;;5014741;28;20062;-65
2022/08/22 10:25:33;;;;;;;6.07;2.70;;;29.80;51.70;;;;;;5027570;28;20041;-65
2022/08/22 10:27:59;;;;;;;5.72;2.92;;;30.10;54.00;;;;;;5026925;28;20037;-66
2022/08/22 10:30:30;;;;;;;4.85;2.50;;;30.20;50.80;;;;;;5027512;28;20311;-65
2022/08/22 10:33:18;;;;;;;6.10;2.70;;;29.80;51.90;;;;;;5050740;28;20029;-65
2022/08/22 10:35:50;;;;;;;8.27;2.75;;;30.00;51.30;;;;;;5034409;28;20068;-66
2022/08/22 10:38:24;;;;;;;6.60;2.80;;;30.30;52.10;;;;;;5034149;28;20044;-65
2022/08/22 10:41:22;;;;;;;8.40;2.80;;;30.30;53.20;;;;;;5031672;28;20036;-65
2022/08/22 10:43:58;;;;;;;5.38;2.53;;;30.50;51.90;;;;;;5035625;28;20032;-67
2022/08/22 10:46:35;;;;;;;7.88;2.75;;;31.70;51.10;;;;;;5035595;28;20020;-65
2022/08/22 10:49:09;;;;;;;5.80;2.80;;;31.70;49.10;;;;;;5033619;28;20037;-66
2022/08/22 10:51:55;;;;;;;8.25;3.05;;;31.50;49.80;;;;;;5030382;28;20025;-65
2022/08/22 10:54:31;;;;;;;6.78;2.97;;;31.80;48.20;;;;;;5037366;28;20064;-65
2022/08/22 10:57:25;;;;;;;5.57;2.30;;;31.30;49.50;;;;;;5031365;28;20044;-66
2022/08/22 11:00:12;;;;;;;6.55;2.70;;;30.00;49.20;;;;;;5041672;28;20314;-65
2022/08/22 11:02:53;;;;;;;8.02;2.90;;;29.40;51.00;;;;;;5023606;28;20041;-64
2022/08/22 11:05:22;;;;;;;7.93;3.17;;;29.30;50.30;;;;;;5031083;28;20025;-65
2022/08/22 11:08:05;;;;;;;5.85;2.72;;;29.70;50.10;;;;;;5017815;28;20030;-65
2022/08/22 11:10:54;;;;;;;4.78;2.30;;;30.10;48.80;;;;;;5032669;28;20043;-66
2022/08/22 11:13:42;;;;;;;5.47;2.65;;;30.70;46.70;;;;;;5018169;28;20072;-66
2022/08/22 11:16:32;;;;;;;4.65;2.20;;;31.00;48.90;;;;;;5018071;28;20037;-65
2022/08/22 11:19:07;;;;;;;6.15;2.78;;;31.10;48.00;;;;;;5025737;28;20037;-66
2022/08/22 11:21:49;;;;;;;7.47;2.60;;;31.00;47.40;;;;;;5025039;28;20502;-66
2022/08/22 11:24:29;;;;;;;7.15;2.83;;;30.90;47.10;;;;;;5029285;28;20044;-66
2022/08/22 11:27:03;;;;;;;7.57;3.00;;;29.30;49.20;;;;;;5034963;28;20092;-65
2022/08/22 11:29:39;;;;;;;7.13;2.75;;;28.30;51.30;;;;;;5035401;28;20411;-66
2022/08/22 11:33:00;;;;;;;5.65;2.53;;;27.60;51.90;;;;;;5024561;28;20038;-66
2022/08/22 11:36:20;;;;;;;5.70;2.80;;;27.60;52.30;;;;;;5002510;28;20037;-66
2022/08/22 11:39:26;;;;;;;6.72;2.95;;;27.60;54.50;;;;;;5012265;28;20464;-66
2022/08/22 11:41:51;;;;;;;5.78;2.65;;;27.30;53.90;;;;;;5014101;28;20441;-66
2022/08/22 11:44:36;;;;;;;6.07;2.80;;;27.60;54.40;;;;;;5022469;28;20022;-66
2022/08/22 11:47:12;;;;;;;8.25;3.17;;;28.50;54.10;;;;;;5015589;28;20029;-66
2022/08/22 11:50:13;;;;;;;7.75;3.08;;;29.00;53.10;;;;;;5018129;28;20026;-66
2022/08/22 11:53:04;;;;;;;6.25;2.85;;;29.10;53.10;;;;;;5030484;28;20026;-65
2022/08/22 11:55:50;;;;;;;8.65;3.00;;;28.40;54.30;;;;;;5013847;28;20042;-66
2022/08/22 11:58:16;;;;;;;5.50;2.80;;;27.70;55.70;;;;;;5034071;28;20087;-66
2022/08/22 12:00:53;;;;;;;6.15;2.80;;;27.20;56.30;;;;;;5024510;28;20030;-66
2022/08/22 12:03:40;;;;;;;10.18;2.83;;;26.70;56.20;;;;;;5025499;28;20030;-66
2022/08/22 12:06:42;;;;;;;5.50;2.83;;;26.90;57.40;;;;;;5038711;28;20419;-65
2022/08/22 12:09:17;;;;;;;7.68;3.00;;;27.80;56.50;;;;;;5024912;28;20033;-65
2022/08/22 12:12:14;;;;;;;7.30;3.67;;;28.80;54.20;;;;;;5034517;28;20028;-65
2022/08/22 12:15:02;;;;;;;5.82;2.45;;;29.20;53.00;;;;;;5038943;28;20079;-66
2022/08/22 12:17:43;;;;;;;7.25;2.78;;;29.40;54.10;;;;;;4998715;28;20072;-66
2022/08/22 12:20:23;;;;;;;6.13;2.80;;;29.80;53.40;;;;;;5025363;28;20435;-65
2022/08/22 12:23:07;;;;;;;8.55;2.90;;;29.70;51.50;;;;;;5033873;28;20040;-65
2022/08/22 12:26:06;;;;;;;8.48;3.47;;;29.30;54.50;;;;;;5030480;28;20033;-66
2022/08/22 12:28:48;;;;;;;6.60;2.85;;;29.00;51.70;;;;;;5035250;28;20036;-66
2022/08/22 12:31:42;;;;;;;7.40;3.28;;;28.10;54.90;;;;;;5029303;28;20415;-64
2022/08/22 12:34:39;;;;;;;7.82;2.78;;;27.50;55.70;;;;;;5030039;28;20087;-64
2022/08/22 12:37:19;;;;;;;5.15;2.63;;;26.90;57.10;;;;;;5029172;28;20046;-64
2022/08/22 12:40:09;;;;;;;6.43;2.83;;;26.70;58.40;;;;;;5030207;28;20036;-65
2022/08/22 12:42:54;;;;;;;6.65;3.10;;;26.90;60.30;;;;;;5028751;28;20022;-66
2022/08/22 12:45:34;;;;;;;5.45;2.78;;;27.90;57.10;;;;;;5024777;28;20025;-66
2022/08/22 12:48:06;;;;;;;6.65;2.65;;;28.70;56.70;;;;;;5030048;28;20053;-67
2022/08/22 12:50:44;;;;;;;7.93;2.85;;;28.90;55.00;;;;;;5023987;28;20084;-66
2022/08/22 12:53:29;;;;;;;6.30;2.95;;;29.00;57.90;;;;;;5026848;28;20030;-66
2022/08/22 12:56:03;;;;;;;6.57;3.00;;;29.40;56.60;;;;;;5018569;28;20030;-67
2022/08/22 12:59:14;;;;;;;7.00;3.20;;;29.90;55.50;;;;;;5019586;28;20033;-66
2022/08/22 13:01:45;;;;;;;8.48;2.90;;;30.20;53.60;;;;;;5016244;28;20092;-66
2022/08/22 13:04:18;;;;;;;5.25;2.78;;;30.40;54.60;;;;;;5029711;28;20113;-66
2022/08/22 13:07:01;;;;;;;6.07;3.38;;;30.50;53.90;;;;;;5021651;28;20080;-66
2022/08/22 13:09:29;;;;;;;5.35;3.00;;;30.60;53.50;;;;;;5028013;28;20026;-67
2022/08/22 13:12:02;;;;;;;5.70;3.20;;;31.00;54.10;;;;;;5029056;28;20053;-66
2022/08/22 13:14:30;;;;;;;6.95;2.60;;;31.00;51.70;;;;;;5032542;28;20025;-66
2022/08/22 13:17:01;;;;;;;5.82;3.00;;;31.10;51.30;;;;;;5036233;28;20029;-66
2022/08/22 13:19:31;;;;;;;8.98;2.70;;;31.40;51.40;;;;;;5029137;28;20024;-66
2022/08/22 13:22:09;;;;;;;4.97;2.45;;;31.50;52.60;;;;;;5018066;28;20101;-66
2022/08/22 13:24:43;;;;;;;6.63;3.17;;;31.30;51.70;;;;;;5030223;28;20025;-66
2022/08/22 13:27:40;;;;;;;6.13;2.85;;;31.10;51.30;;;;;;5035777;28;20032;-66
2022/08/22 13:30:12;;;;;;;6.90;2.90;;;31.60;53.20;;;;;;5022510;28;20087;-65
2022/08/22 13:32:51;;;;;;;6.60;3.08;;;32.40;51.00;;;;;;5029657;28;20319;-67
2022/08/22 13:35:25;;;;;;;7.43;3.20;;;32.20;50.40;;;;;;5035760;28;20331;-67
2022/08/22 13:38:00;;;;;;;5.32;2.83;;;30.50;53.20;;;;;;5027007;28;20427;-66
2022/08/22 13:40:32;;;;;;;4.70;2.80;;;29.80;53.80;;;;;;5031919;28;20047;-67
2022/08/22 13:43:06;;;;;;;6.45;3.40;;;29.30;56.30;;;;;;5033677;28;20023;-67
2022/08/22 13:45:35;;;;;;;5.47;3.00;;;28.70;57.50;;;;;;5026847;28;20288;-66
2022/08/22 13:48:08;;;;;;;6.65;3.20;;;28.30;58.90;;;;;;5032481;28;20049;-65
2022/08/22 13:50:43;;;;;;;5.22;3.17;;;28.20;58.30;;;;;;5036086;28;20121;-65
2022/08/22 13:53:39;;;;;;;8.50;3.75;;;27.70;60.20;;;;;;5032434;28;20045;-65
2022/08/22 13:56:10;;;;;;;8.20;3.33;;;27.30;61.10;;;;;;5028432;28;20107;-65
2022/08/22 13:58:57;;;;;;;6.55;3.15;;;26.90;62.80;;;;;;5023066;28;20167;-66
2022/08/22 14:01:51;;;;;;;5.75;3.05;;;27.40;65.00;;;;;;5025318;28;20095;-66
2022/08/22 14:04:34;;;;;;;4.95;2.85;;;29.10;61.00;;;;;;5018024;28;20446;-65